^^
Station Historical Data
 
Daily Summary for January 23, 2020 Units:  Metric    English   Both
« Previous Day
Next Day »
Daily Weekly Monthly Yearly Custom
  Current: High: Low: Average:
Temperature: 12.8 °C 16.1 °C 7.7 °C 10.9 °C
Dew Point: 6.8 °C 8.4 °C 5.1 °C 6.3 °C
Humidity: 67% 85% 50% 74%
Wind Speed: 4.8km/h 18.5km/h 0.0km/h 6.1km/h
Wind Gust: 14.5km/h 22.5km/h - -
WindNNW - - West
Pressure: 1024.1 hPa 1026.0 hPa 1023.6 hPa -
Precipitation: 0.0 mm      
Historical Graphs
 
 
Tabular Data for January 23, 2020
Time Temperature Dew Point Pressure Wind Wind Speed Wind Gust Humidity Rainfall Rate (Hourly) Conditions
00:00 8.6 °C 5.5 °C 1026.0 hPa NW 1.6 km/h 6.4 km/h 81% 0.0 mm SKC
00:05 8.6 °C 5.6 °C 1026.0 hPa NW 1.6 km/h 6.4 km/h 81% 0.0 mm SKC
00:10 8.6 °C 5.5 °C 1026.0 hPa NW 1.6 km/h 4.8 km/h 81% 0.0 mm SKC
00:15 8.6 °C 5.6 °C 1026.0 hPa NW 1.6 km/h 3.2 km/h 81% 0.0 mm CLR
00:20 8.6 °C 5.6 °C 1026.0 hPa Calm   1.6 km/h 81% 0.0 mm CLR
00:25 8.6 °C 5.6 °C 1025.9 hPa NW 1.6 km/h 3.2 km/h 81% 0.0 mm CLR
00:30 8.6 °C 5.6 °C 1025.9 hPa Calm   1.6 km/h 81% 0.0 mm CLR
00:35 8.6 °C 5.6 °C 1025.9 hPa Calm     81% 0.0 mm CLR
00:40 8.6 °C 5.7 °C 1025.9 hPa Calm   3.2 km/h 82% 0.0 mm CLR
00:45 8.7 °C 5.8 °C 1025.9 hPa NW 1.6 km/h 3.2 km/h 82% 0.0 mm CLR
00:50 8.7 °C 5.8 °C 1026.0 hPa NW 1.6 km/h 3.2 km/h 82% 0.0 mm CLR
00:55 8.7 °C 5.8 °C 1025.9 hPa NW 1.6 km/h 4.8 km/h 82% 0.0 mm CLR
01:00 8.7 °C 5.8 °C 1026.0 hPa NW 1.6 km/h 6.4 km/h 82% 0.0 mm CLR
01:05 8.8 °C 5.9 °C 1025.9 hPa NW 4.8 km/h 6.4 km/h 82% 0.0 mm CLR
01:10 8.8 °C 5.9 °C 1025.9 hPa NW 3.2 km/h 8.0 km/h 82% 0.0 mm CLR
01:15 8.7 °C 5.8 °C 1025.9 hPa WNW 3.2 km/h 6.4 km/h 82% 0.0 mm SKC
01:20 8.7 °C 5.6 °C 1025.8 hPa WNW 3.2 km/h 4.8 km/h 81% 0.0 mm SKC
01:25 8.7 °C 5.8 °C 1025.8 hPa WNW 4.8 km/h 8.0 km/h 82% 0.0 mm SKC
01:30 8.7 °C 5.8 °C 1025.9 hPa WNW 1.6 km/h 4.8 km/h 82% 0.0 mm SKC
01:35 8.6 °C 5.7 °C 1025.8 hPa WNW 1.6 km/h 4.8 km/h 82% 0.0 mm SKC
01:40 8.6 °C 5.7 °C 1025.7 hPa WNW 1.6 km/h 4.8 km/h 82% 0.0 mm SKC
01:45 8.6 °C 5.7 °C 1025.7 hPa Calm   4.8 km/h 82% 0.0 mm SKC
01:50 8.5 °C 5.6 °C 1025.7 hPa WNW 1.6 km/h 1.6 km/h 82% 0.0 mm SKC
01:55 8.4 °C 5.6 °C 1025.6 hPa WNW 3.2 km/h 6.4 km/h 82% 0.0 mm SKC
02:00 8.6 °C 5.7 °C 1025.6 hPa NW 3.2 km/h 6.4 km/h 82% 0.0 mm SKC
02:05 8.6 °C 5.7 °C 1025.6 hPa NW 3.2 km/h 6.4 km/h 82% 0.0 mm SKC
02:10 8.5 °C 5.6 °C 1025.6 hPa NW 1.6 km/h 4.8 km/h 82% 0.0 mm SKC
02:15 8.4 °C 5.5 °C 1025.6 hPa NW 1.6 km/h 8.0 km/h 82% 0.0 mm SKC
02:20 8.3 °C 5.4 °C 1025.5 hPa NNE 1.6 km/h 8.0 km/h 82% 0.0 mm SKC
02:25 8.3 °C 5.4 °C 1025.5 hPa NNE 1.6 km/h 6.4 km/h 82% 0.0 mm SKC
02:30 8.2 °C 5.3 °C 1025.5 hPa NW 1.6 km/h 8.0 km/h 82% 0.0 mm SKC
02:35 8.3 °C 5.4 °C 1025.5 hPa NNW 1.6 km/h 6.4 km/h 82% 0.0 mm SKC
02:40 8.3 °C 5.4 °C 1025.5 hPa NNW 1.6 km/h 8.0 km/h 82% 0.0 mm SKC
02:45 8.3 °C 5.4 °C 1025.5 hPa NNW 1.6 km/h 6.4 km/h 82% 0.0 mm SKC
02:50 8.3 °C 5.4 °C 1025.5 hPa NNW 4.8 km/h 9.7 km/h 82% 0.0 mm SKC
02:55 8.5 °C 5.6 °C 1025.5 hPa NNW 4.8 km/h 8.0 km/h 82% 0.0 mm SKC
03:00 8.7 °C 5.8 °C 1025.5 hPa NNW 4.8 km/h 8.0 km/h 82% 0.0 mm SKC
03:05 8.8 °C 5.7 °C 1025.5 hPa NNW 3.2 km/h 8.0 km/h 81% 0.0 mm SKC
03:10 8.9 °C 5.8 °C 1025.3 hPa NNW 4.8 km/h 6.4 km/h 81% 0.0 mm SKC
03:15 9.0 °C 5.9 °C 1025.3 hPa NNW 4.8 km/h 8.0 km/h 81% 0.0 mm SKC
03:20 9.1 °C 5.8 °C 1025.3 hPa NW 3.2 km/h 8.0 km/h 80% 0.0 mm SKC
03:25 9.1 °C 5.8 °C 1025.3 hPa NW 4.8 km/h 11.3 km/h 80% 0.0 mm SKC
03:30 9.1 °C 5.8 °C 1025.2 hPa WNW 4.8 km/h 11.3 km/h 80% 0.0 mm SKC
03:35 9.0 °C 5.7 °C 1025.2 hPa WNW 3.2 km/h 8.0 km/h 80% 0.0 mm SKC
03:40 9.0 °C 5.9 °C 1025.3 hPa WNW 1.6 km/h 4.8 km/h 81% 0.0 mm SKC
03:45 9.0 °C 5.9 °C 1025.1 hPa WNW 3.2 km/h 6.4 km/h 81% 0.0 mm SKC
03:50 9.1 °C 6.2 °C 1025.1 hPa WNW 4.8 km/h 6.4 km/h 82% 0.0 mm SKC
03:55 9.2 °C 6.3 °C 1025.0 hPa WNW 4.8 km/h 6.4 km/h 82% 0.0 mm SKC
04:00 9.2 °C 6.3 °C 1025.0 hPa WNW 4.8 km/h 6.4 km/h 82% 0.0 mm SKC
04:05 9.2 °C 6.2 °C 1025.1 hPa WNW 4.8 km/h 9.7 km/h 82% 0.0 mm SKC
04:10 9.2 °C 6.3 °C 1025.1 hPa WNW 8.0 km/h 9.7 km/h 82% 0.0 mm SKC
04:15 9.1 °C 6.2 °C 1025.1 hPa WNW 8.0 km/h 11.3 km/h 82% 0.0 mm SKC
04:20 8.9 °C 6.1 °C 1025.1 hPa WNW 8.0 km/h 12.9 km/h 82% 0.0 mm SKC
04:25 8.8 °C 6.1 °C 1025.0 hPa WNW 8.0 km/h 11.3 km/h 83% 0.0 mm SKC
04:30 8.6 °C 6.0 °C 1025.1 hPa WNW 9.7 km/h 12.9 km/h 84% 0.0 mm SKC
04:35 8.3 °C 5.7 °C 1025.1 hPa WNW 9.7 km/h 12.9 km/h 84% 0.0 mm SKC
04:40 8.1 °C 5.5 °C 1025.1 hPa WNW 4.8 km/h 12.9 km/h 84% 0.0 mm SKC
04:45 7.8 °C 5.5 °C 1025.0 hPa WNW 11.3 km/h 12.9 km/h 85% 0.0 mm SKC
04:50 7.8 °C 5.4 °C 1025.1 hPa WNW 9.7 km/h 12.9 km/h 85% 0.0 mm SKC
04:55 7.8 °C 5.4 °C 1025.1 hPa WNW 11.3 km/h 14.5 km/h 85% 0.0 mm SKC
05:00 7.7 °C 5.3 °C 1025.1 hPa WNW 11.3 km/h 14.5 km/h 85% 0.0 mm SKC
05:05 7.7 °C 5.3 °C 1025.1 hPa West 4.8 km/h 14.5 km/h 85% 0.0 mm SKC
05:10 7.8 °C 5.4 °C 1025.0 hPa WNW 4.8 km/h 11.3 km/h 85% 0.0 mm SKC
05:15 8.0 °C 5.6 °C 1025.0 hPa WNW 4.8 km/h 12.9 km/h 85% 0.0 mm SKC
05:20 8.1 °C 5.7 °C 1025.0 hPa NW 3.2 km/h 6.4 km/h 85% 0.0 mm SKC
05:25 8.3 °C 5.9 °C 1024.9 hPa WNW 4.8 km/h 11.3 km/h 85% 0.0 mm SKC
05:30 8.4 °C 6.1 °C 1024.8 hPa WNW 3.2 km/h 8.0 km/h 85% 0.0 mm SKC
05:35 8.6 °C 6.1 °C 1024.8 hPa NW 8.0 km/h 11.3 km/h 84% 0.0 mm SKC
05:40 8.8 °C 6.2 °C 1024.8 hPa NW 11.3 km/h 14.5 km/h 84% 0.0 mm SKC
05:45 8.9 °C 6.0 °C 1024.8 hPa NW 11.3 km/h 14.5 km/h 82% 0.0 mm SKC
05:50 8.9 °C 6.1 °C 1024.7 hPa NW 4.8 km/h 16.1 km/h 82% 0.0 mm SKC
05:55 8.9 °C 5.8 °C 1024.7 hPa NW 3.2 km/h 12.9 km/h 81% 0.0 mm SKC
06:00 9.0 °C 5.9 °C 1024.7 hPa NNW 3.2 km/h 12.9 km/h 81% 0.0 mm SKC
06:05 9.1 °C 5.9 °C 1024.7 hPa NW 3.2 km/h 8.0 km/h 81% 0.0 mm SKC
06:10 9.2 °C 5.9 °C 1024.8 hPa WNW 8.0 km/h 11.3 km/h 80% 0.0 mm SKC
06:15 9.3 °C 6.2 °C 1024.9 hPa WNW 8.0 km/h 12.9 km/h 81% 0.0 mm SKC
06:20 9.2 °C 6.1 °C 1024.8 hPa WNW 4.8 km/h 9.7 km/h 81% 0.0 mm SKC
06:25 9.2 °C 6.1 °C 1024.9 hPa WNW 8.0 km/h 14.5 km/h 81% 0.0 mm SKC
06:30 9.2 °C 5.9 °C 1025.0 hPa WNW 4.8 km/h 14.5 km/h 80% 0.0 mm SKC
06:35 9.3 °C 6.0 °C 1025.1 hPa WNW 8.0 km/h 14.5 km/h 80% 0.0 mm SKC
06:40 9.3 °C 6.2 °C 1025.1 hPa WNW 4.8 km/h 14.5 km/h 81% 0.0 mm SKC
06:45 9.2 °C 6.3 °C 1025.1 hPa WNW 9.7 km/h 14.5 km/h 82% 0.0 mm SKC
06:50 9.3 °C 6.4 °C 1025.1 hPa WNW 9.7 km/h 16.1 km/h 82% 0.0 mm SKC
06:55 9.1 °C 6.4 °C 1025.1 hPa NW 8.0 km/h 16.1 km/h 83% 0.0 mm SKC
07:00 9.1 °C 6.5 °C 1025.1 hPa NW 4.8 km/h 14.5 km/h 84% 0.0 mm SKC
07:05 9.1 °C 6.5 °C 1025.1 hPa NW 8.0 km/h 14.5 km/h 84% 0.0 mm SKC
07:10 9.0 °C 6.6 °C 1025.1 hPa WNW 9.7 km/h 19.3 km/h 85% 0.0 mm SKC
07:15 8.8 °C 6.4 °C 1025.2 hPa WNW 9.7 km/h 16.1 km/h 85% 0.0 mm SKC
07:20 8.5 °C 5.9 °C 1025.2 hPa NW 8.0 km/h 16.1 km/h 84% 0.0 mm SKC
07:25 8.1 °C 5.6 °C 1025.2 hPa WNW 8.0 km/h 14.5 km/h 84% 0.0 mm SKC
07:30 7.9 °C 5.4 °C 1025.2 hPa WNW 8.0 km/h 12.9 km/h 84% 0.0 mm SKC
07:35 7.8 °C 5.3 °C 1025.3 hPa WNW 9.7 km/h 14.5 km/h 84% 0.0 mm SKC
07:40 7.8 °C 5.2 °C 1025.3 hPa WNW 4.8 km/h 19.3 km/h 84% 0.0 mm SKC
07:45 7.8 °C 5.2 °C 1025.2 hPa WNW 4.8 km/h 11.3 km/h 84% 0.0 mm SKC
07:50 7.7 °C 5.2 °C 1025.3 hPa WNW 8.0 km/h 12.9 km/h 84% 0.0 mm SKC
07:55 7.7 °C 5.2 °C 1025.3 hPa West 8.0 km/h 11.3 km/h 84% 0.0 mm SKC
08:00 7.8 °C 5.2 °C 1025.3 hPa WNW 8.0 km/h 11.3 km/h 84% 0.0 mm SKC
08:05 7.8 °C 5.1 °C 1025.2 hPa WNW 4.8 km/h 12.9 km/h 83% 0.0 mm SKC
08:10 7.8 °C 5.1 °C 1025.3 hPa WNW 4.8 km/h 14.5 km/h 83% 0.0 mm SKC
08:15 7.9 °C 5.2 °C 1025.4 hPa WNW 8.0 km/h 14.5 km/h 83% 0.0 mm SKC
08:20 8.1 °C 5.2 °C 1025.5 hPa WNW 11.3 km/h 19.3 km/h 82% 0.0 mm SKC
08:25 8.1 °C 5.2 °C 1025.5 hPa WNW 4.8 km/h 14.5 km/h 82% 0.0 mm SKC
08:30 8.2 °C 5.4 °C 1025.6 hPa WNW 9.7 km/h 14.5 km/h 83% 0.0 mm SKC
08:35 8.2 °C 5.4 °C 1025.6 hPa WNW 12.9 km/h 16.1 km/h 83% 0.0 mm SKC
08:40 8.2 °C 5.4 °C 1025.6 hPa WNW 11.3 km/h 14.5 km/h 83% 0.0 mm SKC
08:45 8.2 °C 5.5 °C 1025.7 hPa WNW 9.7 km/h 16.1 km/h 83% 0.0 mm SKC
08:50 8.3 °C 5.6 °C 1025.7 hPa WNW 11.3 km/h 16.1 km/h 83% 0.0 mm SKC
08:55 8.3 °C 5.4 °C 1025.7 hPa WNW 9.7 km/h 14.5 km/h 82% 0.0 mm SKC
09:00 8.4 °C 5.6 °C 1025.8 hPa WNW 9.7 km/h 19.3 km/h 82% 0.0 mm SKC
09:05 8.7 °C 5.8 °C 1025.8 hPa WNW 8.0 km/h 16.1 km/h 82% 0.0 mm SKC
09:10 8.9 °C 5.9 °C 1025.8 hPa WNW 8.0 km/h 11.3 km/h 82% 0.0 mm SKC
09:15 9.1 °C 6.2 °C 1025.8 hPa WNW 9.7 km/h 14.5 km/h 82% 0.0 mm SKC
09:20 9.4 °C 6.3 °C 1025.7 hPa WNW 4.8 km/h 12.9 km/h 81% 0.0 mm SKC
09:25 9.7 °C 6.6 °C 1025.7 hPa WNW 4.8 km/h 14.5 km/h 81% 0.0 mm SKC
09:30 9.9 °C 6.8 °C 1025.7 hPa NW 9.7 km/h 14.5 km/h 81% 0.0 mm SKC
09:35 10.1 °C 6.8 °C 1025.7 hPa NW 8.0 km/h 12.9 km/h 80% 0.0 mm SKC
09:40 10.1 °C 6.7 °C 1025.7 hPa NW 4.8 km/h 16.1 km/h 80% 0.0 mm SKC
09:45 10.1 °C 7.0 °C 1025.7 hPa WNW 3.2 km/h 16.1 km/h 81% 0.0 mm SKC
09:50 10.2 °C 7.1 °C 1025.7 hPa WNW 12.9 km/h 16.1 km/h 81% 0.0 mm SKC
09:55 10.3 °C 7.3 °C 1025.8 hPa WNW 8.0 km/h 16.1 km/h 82% 0.0 mm SKC
10:00 10.4 °C 7.5 °C 1025.8 hPa WNW 9.7 km/h 14.5 km/h 82% 0.0 mm SKC
10:05 10.6 °C 7.6 °C 1025.7 hPa WNW 4.8 km/h 11.3 km/h 82% 0.0 mm SKC
10:10 10.7 °C 7.6 °C 1025.8 hPa WNW 9.7 km/h 14.5 km/h 81% 0.0 mm SKC
10:15 10.9 °C 7.6 °C 1025.7 hPa WNW 9.7 km/h 14.5 km/h 80% 0.0 mm SKC
10:20 11.1 °C 7.8 °C 1025.7 hPa WNW 8.0 km/h 14.5 km/h 80% 0.0 mm SKC
10:25 11.3 °C 7.8 °C 1025.7 hPa West 4.8 km/h 12.9 km/h 79% 0.0 mm SKC
10:30 11.5 °C 7.8 °C 1025.7 hPa West 4.8 km/h 14.5 km/h 78% 0.0 mm SKC
10:35 11.7 °C 7.8 °C 1025.7 hPa WNW 8.0 km/h 12.9 km/h 77% 0.0 mm SKC
10:40 11.7 °C 7.8 °C 1025.7 hPa WNW 9.7 km/h 14.5 km/h 77% 0.0 mm SKC
10:45 11.8 °C 8.1 °C 1025.6 hPa West 12.9 km/h 20.9 km/h 78% 0.0 mm SKC
10:50 11.8 °C 8.3 °C 1025.7 hPa WNW 12.9 km/h 19.3 km/h 79% 0.0 mm SKC
10:55 11.9 °C 8.4 °C 1025.5 hPa WNW 12.9 km/h 19.3 km/h 79% 0.0 mm SKC
11:00 12.1 °C 8.4 °C 1025.5 hPa WNW 12.9 km/h 19.3 km/h 78% 0.0 mm SKC
11:05 12.3 °C 8.4 °C 1025.5 hPa WNW 11.3 km/h 19.3 km/h 77% 0.0 mm SKC
11:10 12.5 °C 8.4 °C 1025.5 hPa WNW 9.7 km/h 19.3 km/h 76% 0.0 mm SKC
11:15 12.7 °C 8.4 °C 1025.4 hPa West 9.7 km/h 19.3 km/h 75% 0.0 mm FEW
11:20 12.9 °C 8.4 °C 1025.3 hPa West 9.7 km/h 16.1 km/h 74% 0.0 mm FEW
11:25 13.2 °C 8.4 °C 1025.2 hPa WNW 9.7 km/h 14.5 km/h 73% 0.0 mm FEW
11:30 13.3 °C 8.2 °C 1025.2 hPa WNW 4.8 km/h 19.3 km/h 71% 0.0 mm FEW
11:35 13.6 °C 8.2 °C 1025.1 hPa NW 4.8 km/h 8.0 km/h 70% 0.0 mm FEW
11:40 13.7 °C 7.8 °C 1025.0 hPa WNW 1.6 km/h 6.4 km/h 68% 0.0 mm FEW
11:45 13.9 °C 7.6 °C 1025.0 hPa WNW 9.7 km/h 16.1 km/h 66% 0.0 mm FEW
11:50 13.8 °C 7.6 °C 1025.0 hPa NNW 3.2 km/h 14.5 km/h 66% 0.0 mm FEW
11:55 14.1 °C 7.6 °C 1024.9 hPa NNW 3.2 km/h 6.4 km/h 65% 0.0 mm FEW
12:00 14.3 °C 7.6 °C 1024.8 hPa NW 9.7 km/h 12.9 km/h 64% 0.0 mm FEW
12:05 14.0 °C 7.5 °C 1024.8 hPa West 9.7 km/h 14.5 km/h 65% 0.0 mm FEW
12:10 13.9 °C 7.9 °C 1024.7 hPa West 11.3 km/h 19.3 km/h 67% 0.0 mm FEW
12:15 13.9 °C 7.7 °C 1024.7 hPa WNW 11.3 km/h 19.3 km/h 66% 0.0 mm FEW
12:20 14.0 °C 7.9 °C 1024.7 hPa West 9.7 km/h 19.3 km/h 67% 0.0 mm FEW
12:25 14.0 °C 7.8 °C 1024.7 hPa WNW 11.3 km/h 14.5 km/h 66% 0.0 mm FEW
12:30 14.0 °C 7.9 °C 1024.5 hPa WNW 3.2 km/h 12.9 km/h 67% 0.0 mm FEW
12:35 14.2 °C 7.9 °C 1024.5 hPa West 8.0 km/h 16.1 km/h 66% 0.0 mm FEW
12:40 14.4 °C 8.1 °C 1024.4 hPa WNW 3.2 km/h 11.3 km/h 66% 0.0 mm FEW
12:45 14.5 °C 8.0 °C 1024.4 hPa WNW 3.2 km/h 11.3 km/h 65% 0.0 mm FEW
12:50 14.7 °C 7.2 °C 1024.3 hPa WNW 4.8 km/h 9.7 km/h 61% 0.0 mm FEW
12:55 14.8 °C 7.1 °C 1024.2 hPa NNW 3.2 km/h 6.4 km/h 60% 0.0 mm FEW
13:00 14.9 °C 7.0 °C 1024.2 hPa NNE 3.2 km/h 11.3 km/h 59% 0.0 mm FEW
13:05 15.1 °C 7.1 °C 1024.1 hPa NE 3.2 km/h 12.9 km/h 59% 0.0 mm FEW
13:10 15.2 °C 6.9 °C 1024.0 hPa ENE 4.8 km/h 9.7 km/h 58% 0.0 mm FEW
13:15 15.3 °C 6.8 °C 1024.0 hPa ESE 1.6 km/h 9.7 km/h 57% 0.0 mm SKC
13:20 15.6 °C 7.1 °C 1023.9 hPa ENE 1.6 km/h 4.8 km/h 57% 0.0 mm SKC
13:25 15.8 °C 6.8 °C 1023.9 hPa NNE 4.8 km/h 8.0 km/h 55% 0.0 mm SKC
13:30 15.4 °C 6.4 °C 1023.8 hPa NE 3.2 km/h 12.9 km/h 55% 0.0 mm SKC
13:35 15.5 °C 6.5 °C 1023.8 hPa North 1.6 km/h 8.0 km/h 55% 0.0 mm SKC
13:40 15.8 °C 6.6 °C 1023.8 hPa North 1.6 km/h 8.0 km/h 54% 0.0 mm SKC
13:45 15.6 °C 6.3 °C 1023.8 hPa NNW 14.8 km/h 11.4 km/h 54% 0.0 mm SKC
13:50 15.5 °C 6.2 °C 1023.7 hPa NNW 4.8 km/h 14.5 km/h 54% 0.0 mm SKC
13:55 15.5 °C 6.2 °C 1023.7 hPa North 8.0 km/h 16.1 km/h 54% 0.0 mm SKC
14:00 15.4 °C 6.1 °C 1023.7 hPa North 9.7 km/h 19.3 km/h 54% 0.0 mm SKC
14:05 15.5 °C 5.9 °C 1023.7 hPa NNW 8.0 km/h 16.1 km/h 53% 0.0 mm SKC
14:10 15.8 °C 6.2 °C 1023.7 hPa NNW 4.8 km/h 16.1 km/h 53% 0.0 mm SKC
14:15 15.8 °C 5.7 °C 1023.7 hPa WNW 9.7 km/h 5.5 km/h 51% 0.0 mm SKC
14:20 15.8 °C 5.4 °C 1023.6 hPa North 4.8 km/h 16.1 km/h 50% 0.0 mm SKC
14:25 15.8 °C 6.0 °C 1023.6 hPa North 4.8 km/h 14.5 km/h 52% 0.0 mm SKC
14:30 15.9 °C 6.1 °C 1023.7 hPa North 3.2 km/h 12.9 km/h 52% 0.0 mm SKC
14:35 16.1 °C 6.2 °C 1023.6 hPa NNW 4.8 km/h 16.1 km/h 52% 0.0 mm SKC
14:40 15.8 °C 6.2 °C 1023.6 hPa NNW 8.0 km/h 16.1 km/h 53% 0.0 mm SKC
14:45 15.6 °C 6.6 °C 1023.6 hPa North 8.0 km/h 16.1 km/h 55% 0.0 mm SKC
14:50 15.4 °C 6.7 °C 1023.6 hPa NE 14.8 km/h 8.4 km/h 56% 0.0 mm SKC
14:55 15.3 °C 6.8 °C 1023.6 hPa North 11.3 km/h 20.9 km/h 57% 0.0 mm SKC
15:00 15.3 °C 6.6 °C 1023.6 hPa NNE 8.0 km/h 19.3 km/h 56% 0.0 mm SKC
15:05 15.4 °C 6.7 °C 1023.7 hPa NNE 4.8 km/h 16.1 km/h 56% 0.0 mm SKC
15:10 15.4 °C 6.7 °C 1023.7 hPa North 9.7 km/h 17.7 km/h 56% 0.0 mm SKC
15:15 15.4 °C 6.9 °C 1023.8 hPa NNW 4.8 km/h 12.9 km/h 57% 0.0 mm SKC
15:20 15.3 °C 6.8 °C 1023.8 hPa NNW 8.0 km/h 16.1 km/h 57% 0.0 mm SKC
15:25 15.1 °C 6.7 °C 1023.8 hPa NNW 11.3 km/h 22.5 km/h 57% 0.0 mm SKC
15:30 15.1 °C 6.6 °C 1023.9 hPa North 3.2 km/h 14.5 km/h 57% 0.0 mm SKC
15:35 15.3 °C 6.6 °C 1023.9 hPa North 13.0 km/h 7.7 km/h 56% 0.0 mm SKC
15:40 15.0 °C 6.3 °C 1024.0 hPa NW 8.0 km/h 19.3 km/h 56% 0.0 mm SKC
15:45 14.9 °C 6.2 °C 1024.0 hPa NNW 3.2 km/h 14.5 km/h 56% 0.0 mm SKC
15:50 14.9 °C 6.2 °C 1024.0 hPa NNW 3.2 km/h 19.3 km/h 56% 0.0 mm SKC
15:55 14.7 °C 6.0 °C 1024.0 hPa NNW 18.5 km/h 15.1 km/h 56% 0.0 mm SKC
16:00 14.5 °C 6.3 °C 1023.9 hPa NNW 4.8 km/h 19.3 km/h 58% 0.0 mm SKC
16:05 14.4 °C 6.3 °C 1023.9 hPa NNW 9.7 km/h 20.9 km/h 58% 0.0 mm SKC
16:10 14.2 °C 6.5 °C 1023.9 hPa NNE 3.2 km/h 16.1 km/h 60% 0.0 mm SKC
16:15 14.2 °C 6.5 °C 1023.9 hPa NNE 8.0 km/h 19.3 km/h 60% 0.0 mm SKC
16:20 14.0 °C 6.6 °C 1023.9 hPa North 4.8 km/h 12.9 km/h 61% 0.0 mm SKC
16:25 13.8 °C 6.7 °C 1023.9 hPa North 8.0 km/h 19.3 km/h 62% 0.0 mm SKC
16:30 13.7 °C 6.6 °C 1024.0 hPa NNE 4.8 km/h 14.5 km/h 62% 0.0 mm SKC
16:35 13.6 °C 6.7 °C 1023.9 hPa North 4.8 km/h 16.1 km/h 63% 0.0 mm SKC
16:40 13.5 °C 6.8 °C 1024.0 hPa NNW 3.2 km/h 14.5 km/h 64% 0.0 mm SKC
16:45 13.5 °C 6.8 °C 1023.9 hPa NW 4.8 km/h 12.9 km/h 64% 0.0 mm SKC
16:50 13.4 °C 6.9 °C 1024.0 hPa NNW 3.2 km/h 14.5 km/h 65% 0.0 mm SKC
16:55 13.2 °C 7.0 °C 1024.0 hPa NNW 3.2 km/h 12.9 km/h 66% 0.0 mm SKC
17:00 13.1 °C 6.9 °C 1024.0 hPa NNE 3.2 km/h 12.9 km/h 66% 0.0 mm SKC
17:05 13.0 °C 7.0 °C 1024.0 hPa NNE 4.8 km/h 16.1 km/h 67% 0.0 mm SKC
17:10 12.8 °C 6.8 °C 1024.1 hPa NNW 4.8 km/h 14.5 km/h 67% 0.0 mm SKC